sensor_id;sensor_type;location;lat;lon;timestamp;temperature;humidity
18126;DHT22;53956;52.442;13.284;2023-04-08T00:01:48;9.20;99.90
18126;DHT22;53956;52.442;13.284;2023-04-08T00:04:14;9.20;99.90
18126;DHT22;53956;52.442;13.284;2023-04-08T00:06:42;9.10;99.90
18126;DHT22;53956;52.442;13.284;2023-04-08T00:09:09;9.20;99.90
18126;DHT22;53956;52.442;13.284;2023-04-08T00:11:35;9.20;99.90
18126;DHT22;53956;52.442;13.284;2023-04-08T00:14:03;9.30;99.90
18126;DHT22;53956;52.442;13.284;2023-04-08T00:16:30;9.20;99.90
18126;DHT22;53956;52.442;13.284;2023-04-08T00:18:57;9.10;99.90
18126;DHT22;53956;52.442;13.284;2023-04-08T00:21:23;9.20;99.90
18126;DHT22;53956;52.442;13.284;2023-04-08T00:23:53;9.20;99.90
18126;DHT22;53956;52.442;13.284;2023-04-08T00:26:19;9.20;99.90
18126;DHT22;53956;52.442;13.284;2023-04-08T00:28:46;9.10;99.90
18126;DHT22;53956;52.442;13.284;2023-04-08T00:31:13;9.10;99.90
18126;DHT22;53956;52.442;13.284;2023-04-08T00:33:40;9.10;99.90
18126;DHT22;53956;52.442;13.284;2023-04-08T00:36:07;9.20;99.90
18126;DHT22;53956;52.442;13.284;2023-04-08T00:38:33;9.10;99.90
18126;DHT22;53956;52.442;13.284;2023-04-08T00:41:01;9.20;99.90
18126;DHT22;53956;52.442;13.284;2023-04-08T00:43:28;9.00;99.90
18126;DHT22;53956;52.442;13.284;2023-04-08T00:45:55;9.10;99.90
18126;DHT22;53956;52.442;13.284;2023-04-08T00:48:21;9.00;99.90
18126;DHT22;53956;52.442;13.284;2023-04-08T00:50:48;9.00;99.90
18126;DHT22;53956;52.442;13.284;2023-04-08T00:53:17;9.00;99.90
18126;DHT22;53956;52.442;13.284;2023-04-08T00:55:44;9.10;99.90
18126;DHT22;53956;52.442;13.284;2023-04-08T00:58:13;9.20;99.90
18126;DHT22;53956;52.442;13.284;2023-04-08T01:00:44;9.10;99.90
18126;DHT22;53956;52.442;13.284;2023-04-08T01:03:15;9.00;99.90
18126;DHT22;53956;52.442;13.284;2023-04-08T01:05:53;9.00;99.90
18126;DHT22;53956;52.442;13.284;2023-04-08T01:08:23;9.00;99.90
18126;DHT22;53956;52.442;13.284;2023-04-08T01:10:53;9.10;99.90
18126;DHT22;53956;52.442;13.284;2023-04-08T01:13:25;9.00;99.90
18126;DHT22;53956;52.442;13.284;2023-04-08T01:15:54;8.90;99.90
18126;DHT22;53956;52.442;13.284;2023-04-08T01:18:21;9.10;99.90
18126;DHT22;53956;52.442;13.284;2023-04-08T01:20:50;9.00;99.90
18126;DHT22;53956;52.442;13.284;2023-04-08T01:23:22;9.10;99.90
18126;DHT22;53956;52.442;13.284;2023-04-08T01:25:52;8.90;99.90
18126;DHT22;53956;52.442;13.284;2023-04-08T01:28:21;9.00;99.90
18126;DHT22;53956;52.442;13.284;2023-04-08T01:30:50;9.00;99.90
18126;DHT22;53956;52.442;13.284;2023-04-08T01:33:18;8.90;99.90
18126;DHT22;53956;52.442;13.284;2023-04-08T01:35:46;9.00;99.90
18126;DHT22;53956;52.442;13.284;2023-04-08T01:38:16;8.90;99.90
18126;DHT22;53956;52.442;13.284;2023-04-08T01:40:43;9.10;99.90
18126;DHT22;53956;52.442;13.284;2023-04-08T01:43:15;9.00;99.90
18126;DHT22;53956;52.442;13.284;2023-04-08T01:45:43;9.00;99.90
18126;DHT22;53956;52.442;13.284;2023-04-08T01:48:11;8.90;99.90
18126;DHT22;53956;52.442;13.284;2023-04-08T01:50:40;8.90;99.90
18126;DHT22;53956;52.442;13.284;2023-04-08T01:53:09;8.90;99.90
18126;DHT22;53956;52.442;13.284;2023-04-08T01:55:36;9.00;99.90
18126;DHT22;53956;52.442;13.284;2023-04-08T01:58:05;8.90;99.90
18126;DHT22;53956;52.442;13.284;2023-04-08T02:00:34;8.90;99.90
18126;DHT22;53956;52.442;13.284;2023-04-08T02:03:03;8.90;99.90
18126;DHT22;53956;52.442;13.284;2023-04-08T02:05:31;8.90;99.90
18126;DHT22;53956;52.442;13.284;2023-04-08T02:07:57;8.90;99.90
18126;DHT22;53956;52.442;13.284;2023-04-08T02:10:26;9.00;99.90
18126;DHT22;53956;52.442;13.284;2023-04-08T02:12:53;9.10;99.90
18126;DHT22;53956;52.442;13.284;2023-04-08T02:15:20;8.90;99.90
18126;DHT22;53956;52.442;13.284;2023-04-08T02:17:52;9.10;99.90
18126;DHT22;53956;52.442;13.284;2023-04-08T02:20:23;9.00;99.90
18126;DHT22;53956;52.442;13.284;2023-04-08T02:22:56;8.90;99.90
18126;DHT22;53956;52.442;13.284;2023-04-08T02:25:26;9.00;99.90
18126;DHT22;53956;52.442;13.284;2023-04-08T02:27:55;8.80;99.90
18126;DHT22;53956;52.442;13.284;2023-04-08T02:30:24;8.90;99.90
18126;DHT22;53956;52.442;13.284;2023-04-08T02:32:55;8.90;99.90
18126;DHT22;53956;52.442;13.284;2023-04-08T02:35:23;9.00;99.90
18126;DHT22;53956;52.442;13.284;2023-04-08T02:37:50;9.00;99.90
18126;DHT22;53956;52.442;13.284;2023-04-08T02:40:25;9.10;99.90
18126;DHT22;53956;52.442;13.284;2023-04-08T02:42:52;9.00;99.90
18126;DHT22;53956;52.442;13.284;2023-04-08T02:45:19;9.00;99.90
18126;DHT22;53956;52.442;13.284;2023-04-08T02:47:48;8.90;99.90
18126;DHT22;53956;52.442;13.284;2023-04-08T02:50:16;9.00;99.90
18126;DHT22;53956;52.442;13.284;2023-04-08T02:52:43;8.70;99.90
18126;DHT22;53956;52.442;13.284;2023-04-08T02:55:10;8.90;99.90
18126;DHT22;53956;52.442;13.284;2023-04-08T02:57:37;9.00;99.90
18126;DHT22;53956;52.442;13.284;2023-04-08T03:00:05;8.90;99.90
18126;DHT22;53956;52.442;13.284;2023-04-08T03:02:32;8.90;99.90
18126;DHT22;53956;52.442;13.284;2023-04-08T03:04:59;8.80;99.90
18126;DHT22;53956;52.442;13.284;2023-04-08T03:07:27;8.90;99.90
18126;DHT22;53956;52.442;13.284;2023-04-08T03:09:54;8.90;99.90
18126;DHT22;53956;52.442;13.284;2023-04-08T03:12:21;8.80;99.90
18126;DHT22;53956;52.442;13.284;2023-04-08T03:14:48;8.90;99.90
18126;DHT22;53956;52.442;13.284;2023-04-08T03:17:15;9.00;99.90
18126;DHT22;53956;52.442;13.284;2023-04-08T03:19:42;9.00;99.90
18126;DHT22;53956;52.442;13.284;2023-04-08T03:22:08;9.00;99.90
18126;DHT22;53956;52.442;13.284;2023-04-08T03:24:37;9.00;99.90
18126;DHT22;53956;52.442;13.284;2023-04-08T03:27:03;9.10;99.90
18126;DHT22;53956;52.442;13.284;2023-04-08T03:29:30;9.10;99.90
18126;DHT22;53956;52.442;13.284;2023-04-08T03:31:57;9.00;99.90
18126;DHT22;53956;52.442;13.284;2023-04-08T03:34:24;9.00;99.90
18126;DHT22;53956;52.442;13.284;2023-04-08T03:36:50;9.00;99.90
18126;DHT22;53956;52.442;13.284;2023-04-08T03:39:18;9.10;99.90
18126;DHT22;53956;52.442;13.284;2023-04-08T03:41:46;8.90;99.90
18126;DHT22;53956;52.442;13.284;2023-04-08T03:44:12;9.00;99.90
18126;DHT22;53956;52.442;13.284;2023-04-08T03:46:39;9.10;99.90
18126;DHT22;53956;52.442;13.284;2023-04-08T03:49:06;9.00;99.90
18126;DHT22;53956;52.442;13.284;2023-04-08T03:51:32;9.00;99.90
18126;DHT22;53956;52.442;13.284;2023-04-08T03:53:59;9.00;99.90
18126;DHT22;53956;52.442;13.284;2023-04-08T03:56:26;8.90;99.90
18126;DHT22;53956;52.442;13.284;2023-04-08T03:58:54;9.00;99.90
18126;DHT22;53956;52.442;13.284;2023-04-08T04:01:20;9.10;99.90
18126;DHT22;53956;52.442;13.284;2023-04-08T04:03:47;8.90;99.90
18126;DHT22;53956;52.442;13.284;2023-04-08T04:06:13;8.90;99.90
18126;DHT22;53956;52.442;13.284;2023-04-08T04:08:40;8.90;99.90
18126;DHT22;53956;52.442;13.284;2023-04-08T04:11:07;9.00;99.90
18126;DHT22;53956;52.442;13.284;2023-04-08T04:13:33;9.00;99.90
18126;DHT22;53956;52.442;13.284;2023-04-08T04:16:02;9.00;99.90
18126;DHT22;53956;52.442;13.284;2023-04-08T04:18:28;9.00;99.90
18126;DHT22;53956;52.442;13.284;2023-04-08T04:20:55;9.00;99.90
18126;DHT22;53956;52.442;13.284;2023-04-08T04:23:21;8.80;99.90
18126;DHT22;53956;52.442;13.284;2023-04-08T04:25:50;9.10;99.90
18126;DHT22;53956;52.442;13.284;2023-04-08T04:28:16;9.00;99.90
18126;DHT22;53956;52.442;13.284;2023-04-08T04:30:43;9.10;99.90
18126;DHT22;53956;52.442;13.284;2023-04-08T04:33:11;9.00;99.90
18126;DHT22;53956;52.442;13.284;2023-04-08T04:35:38;9.00;99.90
18126;DHT22;53956;52.442;13.284;2023-04-08T04:38:05;8.90;99.90
18126;DHT22;53956;52.442;13.284;2023-04-08T04:40:35;9.00;99.90
18126;DHT22;53956;52.442;13.284;2023-04-08T04:43:01;9.00;99.90
18126;DHT22;53956;52.442;13.284;2023-04-08T04:45:28;8.90;99.90
18126;DHT22;53956;52.442;13.284;2023-04-08T04:47:55;9.00;99.90
18126;DHT22;53956;52.442;13.284;2023-04-08T04:50:23;9.10;99.90
18126;DHT22;53956;52.442;13.284;2023-04-08T04:52:49;9.10;99.90
18126;DHT22;53956;52.442;13.284;2023-04-08T04:55:16;9.10;99.90
18126;DHT22;53956;52.442;13.284;2023-04-08T04:57:43;9.30;99.90
18126;DHT22;53956;52.442;13.284;2023-04-08T05:00:10;9.20;99.90
18126;DHT22;53956;52.442;13.284;2023-04-08T05:02:37;9.10;99.90
18126;DHT22;53956;52.442;13.284;2023-04-08T05:05:04;9.20;99.90
18126;DHT22;53956;52.442;13.284;2023-04-08T05:07:34;9.10;99.90
18126;DHT22;53956;52.442;13.284;2023-04-08T05:10:01;9.10;99.90
18126;DHT22;53956;52.442;13.284;2023-04-08T05:12:28;9.20;99.90
18126;DHT22;53956;52.442;13.284;2023-04-08T05:14:57;9.20;99.90
18126;DHT22;53956;52.442;13.284;2023-04-08T05:17:23;9.20;99.90
18126;DHT22;53956;52.442;13.284;2023-04-08T05:19:50;9.10;99.90
18126;DHT22;53956;52.442;13.284;2023-04-08T05:22:17;9.20;99.90
18126;DHT22;53956;52.442;13.284;2023-04-08T05:24:45;9.30;99.90
18126;DHT22;53956;52.442;13.284;2023-04-08T05:27:12;9.20;99.90
18126;DHT22;53956;52.442;13.284;2023-04-08T05:29:39;9.20;99.90
18126;DHT22;53956;52.442;13.284;2023-04-08T05:32:05;9.30;99.90
18126;DHT22;53956;52.442;13.284;2023-04-08T05:34:32;9.20;99.90
18126;DHT22;53956;52.442;13.284;2023-04-08T05:36:59;9.40;99.90
18126;DHT22;53956;52.442;13.284;2023-04-08T05:39:25;9.20;99.90
18126;DHT22;53956;52.442;13.284;2023-04-08T05:41:53;9.30;99.90
18126;DHT22;53956;52.442;13.284;2023-04-08T05:44:20;9.30;99.90
18126;DHT22;53956;52.442;13.284;2023-04-08T05:46:47;9.40;99.90
18126;DHT22;53956;52.442;13.284;2023-04-08T05:49:13;9.50;99.90
18126;DHT22;53956;52.442;13.284;2023-04-08T05:51:41;9.40;99.90
18126;DHT22;53956;52.442;13.284;2023-04-08T05:54:08;9.30;99.90
18126;DHT22;53956;52.442;13.284;2023-04-08T05:56:35;9.30;99.90
18126;DHT22;53956;52.442;13.284;2023-04-08T05:59:02;9.40;99.90
18126;DHT22;53956;52.442;13.284;2023-04-08T06:01:29;9.30;99.90
18126;DHT22;53956;52.442;13.284;2023-04-08T06:03:56;9.30;99.90
18126;DHT22;53956;52.442;13.284;2023-04-08T06:06:23;9.30;99.90
18126;DHT22;53956;52.442;13.284;2023-04-08T06:08:50;9.30;99.90
18126;DHT22;53956;52.442;13.284;2023-04-08T06:11:17;9.20;99.90
18126;DHT22;53956;52.442;13.284;2023-04-08T06:13:44;9.30;99.90
18126;DHT22;53956;52.442;13.284;2023-04-08T06:16:13;9.30;99.90
18126;DHT22;53956;52.442;13.284;2023-04-08T06:18:41;9.40;99.90
18126;DHT22;53956;52.442;13.284;2023-04-08T06:21:09;9.40;99.90
18126;DHT22;53956;52.442;13.284;2023-04-08T06:23:36;9.30;99.90
18126;DHT22;53956;52.442;13.284;2023-04-08T06:26:02;9.40;99.90
18126;DHT22;53956;52.442;13.284;2023-04-08T06:28:29;9.40;99.90
18126;DHT22;53956;52.442;13.284;2023-04-08T06:30:56;9.40;99.90
18126;DHT22;53956;52.442;13.284;2023-04-08T06:33:24;9.30;99.90
18126;DHT22;53956;52.442;13.284;2023-04-08T06:35:51;9.40;99.90
18126;DHT22;53956;52.442;13.284;2023-04-08T06:38:18;9.40;99.90
18126;DHT22;53956;52.442;13.284;2023-04-08T06:40:44;9.50;99.90
18126;DHT22;53956;52.442;13.284;2023-04-08T06:43:11;9.50;99.90
18126;DHT22;53956;52.442;13.284;2023-04-08T06:45:39;9.50;99.90
18126;DHT22;53956;52.442;13.284;2023-04-08T06:48:07;9.50;99.90
18126;DHT22;53956;52.442;13.284;2023-04-08T06:50:35;9.50;99.90
18126;DHT22;53956;52.442;13.284;2023-04-08T06:53:02;9.60;99.90
18126;DHT22;53956;52.442;13.284;2023-04-08T06:55:28;9.60;99.90
18126;DHT22;53956;52.442;13.284;2023-04-08T06:57:55;9.60;99.90
18126;DHT22;53956;52.442;13.284;2023-04-08T07:00:22;9.60;99.90
18126;DHT22;53956;52.442;13.284;2023-04-08T07:02:48;9.70;99.90
18126;DHT22;53956;52.442;13.284;2023-04-08T07:05:15;9.70;99.90
18126;DHT22;53956;52.442;13.284;2023-04-08T07:07:43;9.60;99.90
18126;DHT22;53956;52.442;13.284;2023-04-08T07:10:12;9.70;99.90
18126;DHT22;53956;52.442;13.284;2023-04-08T07:12:38;9.70;99.90
18126;DHT22;53956;52.442;13.284;2023-04-08T07:15:06;9.80;99.90
18126;DHT22;53956;52.442;13.284;2023-04-08T07:17:33;9.80;99.90
18126;DHT22;53956;52.442;13.284;2023-04-08T07:20:00;9.90;99.90
18126;DHT22;53956;52.442;13.284;2023-04-08T07:22:26;9.90;99.90
18126;DHT22;53956;52.442;13.284;2023-04-08T07:24:54;10.10;99.90
18126;DHT22;53956;52.442;13.284;2023-04-08T07:27:21;10.00;99.90
18126;DHT22;53956;52.442;13.284;2023-04-08T07:29:51;10.00;99.90
18126;DHT22;53956;52.442;13.284;2023-04-08T07:32:19;10.00;99.90
18126;DHT22;53956;52.442;13.284;2023-04-08T07:34:46;10.10;99.90
18126;DHT22;53956;52.442;13.284;2023-04-08T07:37:13;10.30;99.90
18126;DHT22;53956;52.442;13.284;2023-04-08T07:39:39;10.30;99.90
18126;DHT22;53956;52.442;13.284;2023-04-08T07:42:07;10.30;99.90
18126;DHT22;53956;52.442;13.284;2023-04-08T07:44:34;10.10;99.90
18126;DHT22;53956;52.442;13.284;2023-04-08T07:47:02;10.20;99.90
18126;DHT22;53956;52.442;13.284;2023-04-08T07:49:29;10.30;99.90
18126;DHT22;53956;52.442;13.284;2023-04-08T07:51:56;10.20;99.90
18126;DHT22;53956;52.442;13.284;2023-04-08T07:54:22;10.20;99.90
18126;DHT22;53956;52.442;13.284;2023-04-08T07:56:49;10.20;99.90
18126;DHT22;53956;52.442;13.284;2023-04-08T07:59:17;10.20;99.90
18126;DHT22;53956;52.442;13.284;2023-04-08T08:01:44;10.30;99.90
18126;DHT22;53956;52.442;13.284;2023-04-08T08:04:11;10.30;99.90
18126;DHT22;53956;52.442;13.284;2023-04-08T08:06:38;10.30;99.90
18126;DHT22;53956;52.442;13.284;2023-04-08T08:09:04;10.20;99.90
18126;DHT22;53956;52.442;13.284;2023-04-08T08:11:31;10.30;99.90
18126;DHT22;53956;52.442;13.284;2023-04-08T08:13:58;10.30;99.90
18126;DHT22;53956;52.442;13.284;2023-04-08T08:16:28;10.10;99.90
18126;DHT22;53956;52.442;13.284;2023-04-08T08:18:55;10.10;99.90
18126;DHT22;53956;52.442;13.284;2023-04-08T08:21:21;10.30;99.90
18126;DHT22;53956;52.442;13.284;2023-04-08T08:23:48;10.30;99.90
18126;DHT22;53956;52.442;13.284;2023-04-08T08:26:15;10.30;99.90
18126;DHT22;53956;52.442;13.284;2023-04-08T08:28:41;10.30;99.90
18126;DHT22;53956;52.442;13.284;2023-04-08T08:31:08;10.40;99.90
18126;DHT22;53956;52.442;13.284;2023-04-08T08:33:36;10.30;99.90
18126;DHT22;53956;52.442;13.284;2023-04-08T08:36:03;10.50;99.90
18126;DHT22;53956;52.442;13.284;2023-04-08T08:38:31;10.50;99.90
18126;DHT22;53956;52.442;13.284;2023-04-08T08:40:58;10.50;99.90
18126;DHT22;53956;52.442;13.284;2023-04-08T08:43:26;10.50;99.90
18126;DHT22;53956;52.442;13.284;2023-04-08T08:45:53;10.70;99.90
18126;DHT22;53956;52.442;13.284;2023-04-08T08:48:20;10.90;99.90
18126;DHT22;53956;52.442;13.284;2023-04-08T08:50:48;10.90;99.90
18126;DHT22;53956;52.442;13.284;2023-04-08T08:53:15;10.80;99.90
18126;DHT22;53956;52.442;13.284;2023-04-08T08:55:42;10.70;99.90
18126;DHT22;53956;52.442;13.284;2023-04-08T08:58:09;10.60;99.90
18126;DHT22;53956;52.442;13.284;2023-04-08T09:00:37;10.70;99.90
18126;DHT22;53956;52.442;13.284;2023-04-08T09:03:16;10.60;99.90
18126;DHT22;53956;52.442;13.284;2023-04-08T09:05:50;10.60;99.90
18126;DHT22;53956;52.442;13.284;2023-04-08T09:08:24;10.60;99.90
18126;DHT22;53956;52.442;13.284;2023-04-08T09:10:51;10.60;99.90
18126;DHT22;53956;52.442;13.284;2023-04-08T09:13:17;10.70;99.90
18126;DHT22;53956;52.442;13.284;2023-04-08T09:16:00;10.80;99.90
18126;DHT22;53956;52.442;13.284;2023-04-08T09:18:28;11.10;99.90
18126;DHT22;53956;52.442;13.284;2023-04-08T09:20:56;11.00;99.90
18126;DHT22;53956;52.442;13.284;2023-04-08T09:23:36;11.00;99.90
18126;DHT22;53956;52.442;13.284;2023-04-08T09:26:06;10.90;99.90
18126;DHT22;53956;52.442;13.284;2023-04-08T09:28:33;11.00;99.90
18126;DHT22;53956;52.442;13.284;2023-04-08T09:31:00;10.90;99.90
18126;DHT22;53956;52.442;13.284;2023-04-08T09:33:43;11.10;99.90
18126;DHT22;53956;52.442;13.284;2023-04-08T09:36:11;11.30;99.90
18126;DHT22;53956;52.442;13.284;2023-04-08T09:38:38;11.10;99.90
18126;DHT22;53956;52.442;13.284;2023-04-08T09:41:06;11.00;99.90
18126;DHT22;53956;52.442;13.284;2023-04-08T09:43:35;11.00;99.90
18126;DHT22;53956;52.442;13.284;2023-04-08T09:46:10;11.00;99.90
18126;DHT22;53956;52.442;13.284;2023-04-08T09:48:39;10.90;99.90
18126;DHT22;53956;52.442;13.284;2023-04-08T09:51:07;10.90;99.90
18126;DHT22;53956;52.442;13.284;2023-04-08T09:53:45;10.90;99.90
18126;DHT22;53956;52.442;13.284;2023-04-08T09:56:13;11.00;99.90
18126;DHT22;53956;52.442;13.284;2023-04-08T09:58:45;11.00;99.90
18126;DHT22;53956;52.442;13.284;2023-04-08T10:01:16;11.00;99.90
18126;DHT22;53956;52.442;13.284;2023-04-08T10:03:48;11.00;99.90
18126;DHT22;53956;52.442;13.284;2023-04-08T10:06:16;10.90;99.90
18126;DHT22;53956;52.442;13.284;2023-04-08T10:08:44;11.00;99.90
18126;DHT22;53956;52.442;13.284;2023-04-08T10:11:13;11.10;99.90
18126;DHT22;53956;52.442;13.284;2023-04-08T10:13:41;11.00;99.90
18126;DHT22;53956;52.442;13.284;2023-04-08T10:16:18;11.10;99.90
18126;DHT22;53956;52.442;13.284;2023-04-08T10:18:46;11.20;99.90
18126;DHT22;53956;52.442;13.284;2023-04-08T10:21:37;11.50;99.90
18126;DHT22;53956;52.442;13.284;2023-04-08T10:24:09;11.50;99.90
18126;DHT22;53956;52.442;13.284;2023-04-08T10:26:38;11.80;99.90
18126;DHT22;53956;52.442;13.284;2023-04-08T10:29:31;12.40;99.90
18126;DHT22;53956;52.442;13.284;2023-04-08T10:31:58;12.60;99.90
18126;DHT22;53956;52.442;13.284;2023-04-08T10:34:26;12.70;99.90
18126;DHT22;53956;52.442;13.284;2023-04-08T10:36:54;12.60;99.90
18126;DHT22;53956;52.442;13.284;2023-04-08T10:39:24;12.30;99.90
18126;DHT22;53956;52.442;13.284;2023-04-08T10:41:52;12.20;99.90
18126;DHT22;53956;52.442;13.284;2023-04-08T10:44:21;12.20;99.90
18126;DHT22;53956;52.442;13.284;2023-04-08T10:46:49;11.90;99.90
18126;DHT22;53956;52.442;13.284;2023-04-08T10:49:17;11.70;99.90
18126;DHT22;53956;52.442;13.284;2023-04-08T10:51:44;11.70;99.90
18126;DHT22;53956;52.442;13.284;2023-04-08T10:54:13;11.70;99.90
18126;DHT22;53956;52.442;13.284;2023-04-08T10:56:46;11.90;99.90
18126;DHT22;53956;52.442;13.284;2023-04-08T10:59:14;11.70;99.90
18126;DHT22;53956;52.442;13.284;2023-04-08T11:01:45;11.70;99.90
18126;DHT22;53956;52.442;13.284;2023-04-08T11:04:16;11.70;99.90
18126;DHT22;53956;52.442;13.284;2023-04-08T11:06:45;11.70;99.90
18126;DHT22;53956;52.442;13.284;2023-04-08T11:09:13;11.70;99.90
18126;DHT22;53956;52.442;13.284;2023-04-08T11:11:41;11.70;99.90
18126;DHT22;53956;52.442;13.284;2023-04-08T11:14:09;11.90;99.90
18126;DHT22;53956;52.442;13.284;2023-04-08T11:16:36;11.70;99.90
18126;DHT22;53956;52.442;13.284;2023-04-08T11:19:04;11.90;99.90
18126;DHT22;53956;52.442;13.284;2023-04-08T11:21:34;12.00;99.90
18126;DHT22;53956;52.442;13.284;2023-04-08T11:24:05;12.10;99.90
18126;DHT22;53956;52.442;13.284;2023-04-08T11:26:32;12.10;99.90
18126;DHT22;53956;52.442;13.284;2023-04-08T11:28:59;12.00;99.90
18126;DHT22;53956;52.442;13.284;2023-04-08T11:31:27;12.10;99.90
18126;DHT22;53956;52.442;13.284;2023-04-08T11:33:54;11.90;99.90
18126;DHT22;53956;52.442;13.284;2023-04-08T11:36:21;11.90;99.90
18126;DHT22;53956;52.442;13.284;2023-04-08T11:38:48;12.20;99.90
18126;DHT22;53956;52.442;13.284;2023-04-08T11:41:15;12.20;99.90
18126;DHT22;53956;52.442;13.284;2023-04-08T11:43:55;12.30;99.90
18126;DHT22;53956;52.442;13.284;2023-04-08T11:46:22;12.40;99.90
18126;DHT22;53956;52.442;13.284;2023-04-08T11:49:01;12.40;99.90
18126;DHT22;53956;52.442;13.284;2023-04-08T11:51:28;12.20;99.90
18126;DHT22;53956;52.442;13.284;2023-04-08T11:53:55;12.20;99.90
18126;DHT22;53956;52.442;13.284;2023-04-08T11:56:22;12.00;99.90
18126;DHT22;53956;52.442;13.284;2023-04-08T11:58:50;12.30;99.90
18126;DHT22;53956;52.442;13.284;2023-04-08T12:01:17;12.20;99.90
18126;DHT22;53956;52.442;13.284;2023-04-08T12:04:00;12.10;99.90
18126;DHT22;53956;52.442;13.284;2023-04-08T12:06:27;12.20;99.90
18126;DHT22;53956;52.442;13.284;2023-04-08T12:08:56;12.20;99.90
18126;DHT22;53956;52.442;13.284;2023-04-08T12:11:23;12.40;99.90
18126;DHT22;53956;52.442;13.284;2023-04-08T12:13:50;12.30;99.90
18126;DHT22;53956;52.442;13.284;2023-04-08T12:16:17;12.40;99.90
18126;DHT22;53956;52.442;13.284;2023-04-08T12:18:44;12.50;99.90
18126;DHT22;53956;52.442;13.284;2023-04-08T12:21:12;12.60;99.90
18126;DHT22;53956;52.442;13.284;2023-04-08T12:23:39;12.80;99.90
18126;DHT22;53956;52.442;13.284;2023-04-08T12:26:06;12.70;99.90
18126;DHT22;53956;52.442;13.284;2023-04-08T12:28:32;12.60;99.90
18126;DHT22;53956;52.442;13.284;2023-04-08T12:31:00;12.60;99.90
18126;DHT22;53956;52.442;13.284;2023-04-08T12:33:27;12.80;99.90
18126;DHT22;53956;52.442;13.284;2023-04-08T12:35:53;12.80;99.40
18126;DHT22;53956;52.442;13.284;2023-04-08T12:38:23;13.00;99.90
18126;DHT22;53956;52.442;13.284;2023-04-08T12:40:50;13.20;97.40
18126;DHT22;53956;52.442;13.284;2023-04-08T12:43:17;13.10;92.90
18126;DHT22;53956;52.442;13.284;2023-04-08T12:45:44;13.10;92.90
18126;DHT22;53956;52.442;13.284;2023-04-08T12:48:10;13.00;92.60
18126;DHT22;53956;52.442;13.284;2023-04-08T12:50:37;13.00;93.00
18126;DHT22;53956;52.442;13.284;2023-04-08T12:53:04;13.10;93.40
18126;DHT22;53956;52.442;13.284;2023-04-08T12:55:32;13.30;92.20
18126;DHT22;53956;52.442;13.284;2023-04-08T12:57:59;13.30;93.00
18126;DHT22;53956;52.442;13.284;2023-04-08T13:00:26;13.20;93.00
18126;DHT22;53956;52.442;13.284;2023-04-08T13:02:52;13.10;92.50
18126;DHT22;53956;52.442;13.284;2023-04-08T13:05:19;13.20;92.70
18126;DHT22;53956;52.442;13.284;2023-04-08T13:07:45;13.30;93.80
18126;DHT22;53956;52.442;13.284;2023-04-08T13:10:12;13.60;94.90
18126;DHT22;53956;52.442;13.284;2023-04-08T13:12:40;13.50;94.80
18126;DHT22;53956;52.442;13.284;2023-04-08T13:15:08;13.50;92.80
18126;DHT22;53956;52.442;13.284;2023-04-08T13:17:35;13.50;92.90
18126;DHT22;53956;52.442;13.284;2023-04-08T13:20:02;13.30;93.50
18126;DHT22;53956;52.442;13.284;2023-04-08T13:22:28;13.30;94.30
18126;DHT22;53956;52.442;13.284;2023-04-08T13:24:55;13.20;94.40
18126;DHT22;53956;52.442;13.284;2023-04-08T13:27:22;13.20;94.40
18126;DHT22;53956;52.442;13.284;2023-04-08T13:29:50;13.30;93.90
18126;DHT22;53956;52.442;13.284;2023-04-08T13:32:17;13.30;93.60
18126;DHT22;53956;52.442;13.284;2023-04-08T13:34:43;13.30;92.90
18126;DHT22;53956;52.442;13.284;2023-04-08T13:37:10;13.20;91.80
18126;DHT22;53956;52.442;13.284;2023-04-08T13:39:36;13.30;91.20
18126;DHT22;53956;52.442;13.284;2023-04-08T13:42:03;13.30;90.50
18126;DHT22;53956;52.442;13.284;2023-04-08T13:44:30;13.50;90.70
18126;DHT22;53956;52.442;13.284;2023-04-08T13:46:58;13.60;90.00
18126;DHT22;53956;52.442;13.284;2023-04-08T13:49:26;13.60;88.00
18126;DHT22;53956;52.442;13.284;2023-04-08T13:51:53;13.50;87.40
18126;DHT22;53956;52.442;13.284;2023-04-08T13:54:19;13.70;88.80
18126;DHT22;53956;52.442;13.284;2023-04-08T13:56:46;13.70;88.10
18126;DHT22;53956;52.442;13.284;2023-04-08T13:59:13;13.80;89.40
18126;DHT22;53956;52.442;13.284;2023-04-08T14:01:39;13.80;87.20
18126;DHT22;53956;52.442;13.284;2023-04-08T14:04:07;13.80;87.00
18126;DHT22;53956;52.442;13.284;2023-04-08T14:06:34;13.80;87.20
18126;DHT22;53956;52.442;13.284;2023-04-08T14:09:01;13.80;88.20
18126;DHT22;53956;52.442;13.284;2023-04-08T14:11:28;13.70;87.40
18126;DHT22;53956;52.442;13.284;2023-04-08T14:13:54;13.90;88.50
18126;DHT22;53956;52.442;13.284;2023-04-08T14:16:21;13.90;88.90
18126;DHT22;53956;52.442;13.284;2023-04-08T14:18:48;13.80;88.50
18126;DHT22;53956;52.442;13.284;2023-04-08T14:21:16;13.70;88.00
18126;DHT22;53956;52.442;13.284;2023-04-08T14:23:43;13.70;87.60
18126;DHT22;53956;52.442;13.284;2023-04-08T14:26:11;13.60;87.60
18126;DHT22;53956;52.442;13.284;2023-04-08T14:28:38;13.70;88.00
18126;DHT22;53956;52.442;13.284;2023-04-08T14:31:04;13.60;87.40
18126;DHT22;53956;52.442;13.284;2023-04-08T14:33:31;13.60;87.90
18126;DHT22;53956;52.442;13.284;2023-04-08T14:35:58;13.60;87.50
18126;DHT22;53956;52.442;13.284;2023-04-08T14:38:26;13.70;88.30
18126;DHT22;53956;52.442;13.284;2023-04-08T14:40:53;13.80;86.90
18126;DHT22;53956;52.442;13.284;2023-04-08T14:43:20;13.80;86.60
18126;DHT22;53956;52.442;13.284;2023-04-08T14:45:47;13.90;86.40
18126;DHT22;53956;52.442;13.284;2023-04-08T14:48:14;13.90;86.40
18126;DHT22;53956;52.442;13.284;2023-04-08T14:50:41;13.90;86.00
18126;DHT22;53956;52.442;13.284;2023-04-08T14:53:08;14.00;86.10
18126;DHT22;53956;52.442;13.284;2023-04-08T14:55:36;14.10;86.60
18126;DHT22;53956;52.442;13.284;2023-04-08T14:58:03;14.20;85.80
18126;DHT22;53956;52.442;13.284;2023-04-08T15:00:30;14.00;85.90
18126;DHT22;53956;52.442;13.284;2023-04-08T15:02:56;14.10;86.30
18126;DHT22;53956;52.442;13.284;2023-04-08T15:05:23;14.00;85.90
18126;DHT22;53956;52.442;13.284;2023-04-08T15:07:50;14.10;85.50
18126;DHT22;53956;52.442;13.284;2023-04-08T15:10:16;14.20;86.20
18126;DHT22;53956;52.442;13.284;2023-04-08T15:12:44;14.10;84.50
18126;DHT22;53956;52.442;13.284;2023-04-08T15:15:11;14.10;84.80
18126;DHT22;53956;52.442;13.284;2023-04-08T15:17:38;14.10;85.70
18126;DHT22;53956;52.442;13.284;2023-04-08T15:20:06;14.10;85.20
18126;DHT22;53956;52.442;13.284;2023-04-08T15:22:33;14.30;85.70
18126;DHT22;53956;52.442;13.284;2023-04-08T15:24:59;14.40;85.90
18126;DHT22;53956;52.442;13.284;2023-04-08T15:27:26;14.40;85.80